Time;durP1;ratioP1;P1;durP2;ratioP2;P2;SDS_P1;SDS_P2;PMS_P1;PMS_P2;Temp;Humidity;BMP_temperature;BMP_pressure;BME280_temperature;BME280_humidity;BME280_pressure;Samples;Min_cycle;Max_cycle;Signal;HPM_P1;HPM_P2
2023/08/14 00:01:08;;;;;;;10.00;3.60;;;17.40;99.90;;;;;;7301070;19;20192;-75
2023/08/14 00:03:34;;;;;;;10.33;3.33;;;17.40;99.90;;;;;;7278178;19;20200;-74
2023/08/14 00:06:00;;;;;;;7.90;3.50;;;17.40;99.90;;;;;;7279420;19;20198;-75
2023/08/14 00:08:25;;;;;;;9.13;3.23;;;17.40;99.90;;;;;;7279670;19;20188;-74
2023/08/14 00:10:55;;;;;;;9.30;3.47;;;17.20;99.90;;;;;;7280783;19;20856;-74
2023/08/14 00:13:21;;;;;;;10.60;3.50;;;17.10;99.90;;;;;;7279012;19;20203;-75
2023/08/14 00:15:50;;;;;;;11.00;3.70;;;17.10;99.90;;;;;;7280435;19;20194;-74
2023/08/14 00:18:17;;;;;;;8.97;3.37;;;17.00;99.90;;;;;;7281228;19;20184;-75
2023/08/14 00:20:43;;;;;;;7.77;3.30;;;17.00;99.90;;;;;;7278293;19;20196;-76
2023/08/14 00:23:09;;;;;;;9.00;3.43;;;17.00;99.90;;;;;;7298886;19;20213;-75
2023/08/14 00:25:35;;;;;;;11.17;3.73;;;17.00;99.90;;;;;;7288685;19;20197;-76
2023/08/14 00:28:01;;;;;;;9.50;3.27;;;17.00;99.90;;;;;;7278175;19;20197;-75
2023/08/14 00:30:26;;;;;;;7.70;3.27;;;16.80;99.90;;;;;;7278582;19;20202;-76
2023/08/14 00:32:52;;;;;;;10.07;3.70;;;16.90;99.90;;;;;;7278744;19;20192;-75
2023/08/14 00:35:18;;;;;;;7.43;3.60;;;16.90;99.90;;;;;;7278115;19;20192;-75
2023/08/14 00:37:48;;;;;;;9.03;3.70;;;17.00;99.90;;;;;;7278609;19;20300;-75
2023/08/14 00:40:15;;;;;;;8.33;3.60;;;17.00;99.90;;;;;;7280113;19;20193;-75
2023/08/14 00:42:45;;;;;;;12.17;3.80;;;16.90;99.90;;;;;;7285442;19;20192;-76
2023/08/14 00:45:11;;;;;;;11.90;3.97;;;16.90;99.90;;;;;;7290203;19;20316;-75
2023/08/14 00:47:37;;;;;;;9.10;3.60;;;16.90;99.90;;;;;;7305642;19;20622;-76
2023/08/14 00:50:05;;;;;;;13.23;3.40;;;16.80;99.90;;;;;;7284807;19;20197;-75
2023/08/14 00:52:36;;;;;;;10.20;3.47;;;16.70;99.90;;;;;;7284655;19;20194;-76
2023/08/14 00:55:08;;;;;;;12.57;3.60;;;16.60;99.90;;;;;;7283199;19;20201;-75
2023/08/14 00:57:35;;;;;;;9.67;3.83;;;16.60;99.90;;;;;;7284575;19;20231;-76
2023/08/14 01:00:04;;;;;;;8.60;3.77;;;16.60;99.90;;;;;;7283357;19;20256;-75
2023/08/14 01:02:31;;;;;;;11.23;3.27;;;16.60;99.90;;;;;;7283896;19;20225;-75
2023/08/14 01:04:57;;;;;;;11.43;3.77;;;16.60;99.90;;;;;;7284563;19;20197;-75
2023/08/14 01:07:24;;;;;;;10.43;3.63;;;16.60;99.90;;;;;;7283831;19;20193;-76
2023/08/14 01:09:51;;;;;;;9.00;3.57;;;16.50;99.90;;;;;;7283195;19;20205;-75
2023/08/14 01:12:45;;;;;;;8.90;3.73;;;16.50;99.90;;;;;;7283745;19;20605;-75
2023/08/14 01:15:17;;;;;;;10.07;3.47;;;16.40;99.90;;;;;;7268110;19;20198;-75
2023/08/14 01:17:53;;;;;;;9.30;3.50;;;16.30;99.90;;;;;;7283478;19;20547;-75
2023/08/14 01:20:20;;;;;;;9.40;3.37;;;16.40;99.90;;;;;;7283587;19;20300;-76
2023/08/14 01:23:01;;;;;;;9.97;3.77;;;16.50;99.90;;;;;;7285374;19;20191;-76
2023/08/14 01:25:32;;;;;;;9.17;3.40;;;16.60;99.90;;;;;;7282779;19;20195;-76
2023/08/14 01:28:02;;;;;;;8.37;3.43;;;16.50;99.90;;;;;;7282677;19;20207;-76
2023/08/14 01:30:27;;;;;;;11.13;3.60;;;16.40;99.90;;;;;;7283667;19;20205;-75
2023/08/14 01:32:54;;;;;;;6.83;3.60;;;16.50;99.90;;;;;;7282883;19;20195;-75
2023/08/14 01:35:23;;;;;;;11.90;3.60;;;16.50;99.90;;;;;;7281945;19;20656;-75
2023/08/14 01:38:11;;;;;;;7.33;3.40;;;16.60;99.90;;;;;;7283331;19;20177;-75
2023/08/14 01:40:45;;;;;;;10.53;3.53;;;16.60;99.90;;;;;;7283995;19;20188;-76
2023/08/14 01:43:22;;;;;;;9.90;3.30;;;16.60;99.90;;;;;;7272482;19;20187;-75
2023/08/14 01:45:48;;;;;;;8.63;3.53;;;16.40;99.90;;;;;;7282332;19;20666;-76
2023/08/14 01:48:14;;;;;;;9.37;3.40;;;16.50;99.90;;;;;;7280964;19;20192;-75
2023/08/14 01:50:41;;;;;;;7.87;3.33;;;16.50;99.90;;;;;;7294272;19;20793;-76
2023/08/14 01:53:06;;;;;;;10.17;3.60;;;16.40;99.90;;;;;;7303642;19;20291;-75
2023/08/14 01:55:32;;;;;;;10.37;3.53;;;16.30;99.90;;;;;;7282678;19;20192;-76
2023/08/14 01:57:58;;;;;;;14.30;3.60;;;16.30;99.90;;;;;;7282265;19;20195;-75
2023/08/14 02:00:26;;;;;;;8.93;3.20;;;16.40;99.90;;;;;;7281029;19;20252;-75
2023/08/14 02:02:53;;;;;;;8.90;3.90;;;16.50;99.90;;;;;;7282678;19;20204;-76
2023/08/14 02:05:19;;;;;;;10.10;3.40;;;16.50;99.90;;;;;;7281840;19;20250;-75
2023/08/14 02:07:45;;;;;;;10.50;3.53;;;16.50;99.90;;;;;;7281365;19;20252;-75
2023/08/14 02:10:10;;;;;;;8.33;3.50;;;16.40;99.90;;;;;;7294997;19;20647;-75
2023/08/14 02:12:36;;;;;;;9.10;3.77;;;16.40;99.90;;;;;;7301593;19;20196;-75
2023/08/14 02:15:08;;;;;;;9.07;4.17;;;16.30;99.90;;;;;;7283613;19;20203;-75
2023/08/14 02:17:33;;;;;;;11.53;3.97;;;16.30;99.90;;;;;;7282003;19;20640;-76
2023/08/14 02:19:59;;;;;;;9.20;3.87;;;16.30;99.90;;;;;;7281337;19;20275;-76
2023/08/14 02:22:26;;;;;;;8.27;4.23;;;16.30;99.90;;;;;;7281965;19;20187;-76
2023/08/14 02:24:52;;;;;;;8.63;3.77;;;16.40;99.90;;;;;;7282268;19;20285;-75
2023/08/14 02:27:18;;;;;;;8.03;3.40;;;16.10;99.90;;;;;;7281530;19;20302;-75
2023/08/14 02:29:44;;;;;;;10.07;3.70;;;16.10;99.90;;;;;;7281384;19;20184;-75
2023/08/14 02:32:10;;;;;;;7.97;3.33;;;16.00;99.90;;;;;;7298270;19;20192;-76
2023/08/14 02:34:44;;;;;;;9.70;3.73;;;15.80;99.90;;;;;;7295284;19;20215;-75
2023/08/14 02:37:11;;;;;;;7.93;3.77;;;15.80;99.90;;;;;;7274312;19;20228;-75
2023/08/14 02:39:37;;;;;;;9.60;4.07;;;15.70;99.90;;;;;;7304497;19;20181;-75
2023/08/14 02:42:03;;;;;;;9.67;3.83;;;15.70;99.90;;;;;;7283884;19;20651;-75
2023/08/14 02:44:29;;;;;;;12.93;4.00;;;15.60;99.90;;;;;;7282145;19;20195;-76
2023/08/14 02:46:57;;;;;;;8.77;4.13;;;15.70;99.90;;;;;;7281946;19;20675;-75
2023/08/14 02:49:23;;;;;;;12.50;3.90;;;15.70;99.90;;;;;;7281368;19;20295;-75
2023/08/14 02:51:49;;;;;;;12.70;4.13;;;15.60;99.90;;;;;;7280598;19;20220;-75
2023/08/14 02:54:14;;;;;;;7.83;3.87;;;15.70;99.90;;;;;;7280322;19;20714;-75
2023/08/14 02:56:40;;;;;;;10.33;3.67;;;15.70;99.90;;;;;;7298035;19;20219;-75
2023/08/14 02:59:06;;;;;;;7.83;3.80;;;15.80;99.90;;;;;;7294946;19;20682;-75
2023/08/14 03:01:32;;;;;;;9.17;4.07;;;15.90;99.90;;;;;;7279868;19;20204;-74
2023/08/14 03:03:57;;;;;;;9.80;3.97;;;15.90;99.90;;;;;;7278286;19;20659;-75
2023/08/14 03:06:23;;;;;;;6.53;3.60;;;15.70;99.90;;;;;;7279889;19;20190;-73
2023/08/14 03:08:50;;;;;;;14.17;4.40;;;15.70;99.90;;;;;;7279888;19;20204;-75
2023/08/14 03:11:16;;;;;;;11.30;3.47;;;15.70;99.90;;;;;;7279369;19;20189;-75
2023/08/14 03:13:42;;;;;;;8.07;3.83;;;15.80;99.90;;;;;;7282278;19;20219;-75
2023/08/14 03:16:08;;;;;;;7.27;3.73;;;15.80;99.90;;;;;;7303644;19;20188;-75
2023/08/14 03:18:33;;;;;;;9.30;3.70;;;15.90;99.90;;;;;;7280727;19;20672;-75
2023/08/14 03:20:59;;;;;;;7.50;4.10;;;15.90;99.90;;;;;;7280120;19;20211;-75
2023/08/14 03:23:25;;;;;;;7.60;3.53;;;16.00;99.90;;;;;;7280240;19;20641;-75
2023/08/14 03:25:51;;;;;;;10.40;3.60;;;16.00;99.90;;;;;;7281451;19;20199;-75
2023/08/14 03:28:17;;;;;;;8.33;3.80;;;16.00;99.90;;;;;;7279271;19;20187;-75
2023/08/14 03:30:43;;;;;;;10.43;3.83;;;16.00;99.90;;;;;;7280146;19;20191;-75
2023/08/14 03:33:10;;;;;;;9.17;3.47;;;16.10;99.90;;;;;;7300666;19;20590;-74
2023/08/14 03:35:36;;;;;;;9.47;3.80;;;16.10;99.90;;;;;;7280492;19;20193;-74
2023/08/14 03:38:02;;;;;;;10.47;3.90;;;16.10;99.90;;;;;;7279202;19;20213;-75
2023/08/14 03:40:29;;;;;;;11.17;3.90;;;16.20;99.90;;;;;;7278170;19;20198;-75
2023/08/14 03:42:55;;;;;;;8.93;3.90;;;16.30;99.90;;;;;;7280116;19;20193;-75
2023/08/14 03:45:21;;;;;;;9.40;4.10;;;16.20;99.90;;;;;;7278760;19;20227;-75
2023/08/14 03:47:46;;;;;;;10.77;4.00;;;16.10;99.90;;;;;;7278802;19;20196;-75
2023/08/14 03:50:12;;;;;;;9.47;3.97;;;16.10;99.90;;;;;;7279814;19;20658;-75
2023/08/14 03:52:38;;;;;;;10.53;4.03;;;16.10;99.90;;;;;;7299612;19;20605;-75
2023/08/14 03:55:04;;;;;;;10.57;4.27;;;16.10;99.90;;;;;;7278205;19;20211;-75
2023/08/14 03:57:30;;;;;;;12.30;4.33;;;16.10;99.90;;;;;;7279472;19;20886;-75
2023/08/14 03:59:56;;;;;;;11.83;3.73;;;16.10;99.90;;;;;;7278930;19;20199;-75
2023/08/14 04:02:22;;;;;;;9.50;4.33;;;16.00;99.90;;;;;;7279042;19;20192;-75
2023/08/14 04:04:47;;;;;;;11.00;4.40;;;16.10;99.90;;;;;;7279709;19;20649;-75
2023/08/14 04:07:13;;;;;;;9.27;4.27;;;16.00;99.90;;;;;;7277678;19;20192;-74
2023/08/14 04:09:39;;;;;;;10.23;4.30;;;16.00;99.90;;;;;;7301129;19;20216;-75
2023/08/14 04:12:05;;;;;;;10.50;4.27;;;16.10;99.90;;;;;;7279433;19;20179;-75
2023/08/14 04:14:32;;;;;;;10.43;4.07;;;16.00;99.90;;;;;;7279311;19;20189;-75
2023/08/14 04:16:58;;;;;;;9.80;4.10;;;16.00;99.90;;;;;;7285160;19;20210;-75
2023/08/14 04:19:25;;;;;;;11.97;4.47;;;16.00;99.90;;;;;;7285760;19;20189;-75
2023/08/14 04:21:50;;;;;;;10.73;3.90;;;16.00;99.90;;;;;;7285628;19;20192;-74
2023/08/14 04:24:16;;;;;;;7.47;3.53;;;16.10;99.90;;;;;;7285581;19;20389;-75
2023/08/14 04:26:42;;;;;;;10.50;4.17;;;16.10;99.90;;;;;;7290590;19;20188;-74
2023/08/14 04:29:09;;;;;;;7.50;3.60;;;16.10;99.90;;;;;;7307357;19;20188;-75
2023/08/14 04:31:35;;;;;;;10.60;4.03;;;16.00;99.90;;;;;;7286496;19;20558;-75
2023/08/14 04:34:02;;;;;;;9.83;4.27;;;16.10;99.90;;;;;;7285755;19;20196;-75
2023/08/14 04:36:32;;;;;;;8.10;3.70;;;16.10;99.90;;;;;;7284957;19;20199;-74
2023/08/14 04:38:58;;;;;;;9.67;3.60;;;16.20;99.90;;;;;;7284361;19;20192;-74
2023/08/14 04:41:25;;;;;;;11.57;4.20;;;16.30;99.90;;;;;;7280369;19;20195;-74
2023/08/14 04:43:51;;;;;;;10.93;4.07;;;16.30;99.90;;;;;;7284528;19;20193;-75
2023/08/14 04:46:35;;;;;;;9.97;3.53;;;16.40;99.90;;;;;;7283758;19;20183;-74
2023/08/14 04:49:02;;;;;;;10.00;3.53;;;16.50;99.90;;;;;;7285081;19;20202;-75
2023/08/14 04:51:29;;;;;;;10.57;3.57;;;16.70;99.90;;;;;;7283263;19;20673;-75
2023/08/14 04:53:56;;;;;;;9.30;3.20;;;17.00;99.90;;;;;;7284360;19;20196;-75
2023/08/14 04:56:23;;;;;;;7.80;3.03;;;17.30;99.90;;;;;;7285373;19;20197;-74
2023/08/14 04:58:52;;;;;;;9.10;2.93;;;17.40;99.90;;;;;;7282402;19;20196;-74
2023/08/14 05:01:18;;;;;;;7.77;2.93;;;17.30;99.90;;;;;;7284624;19;20211;-74
2023/08/14 05:03:48;;;;;;;8.43;3.00;;;17.10;99.90;;;;;;7283536;19;20274;-74
2023/08/14 05:06:14;;;;;;;8.67;3.07;;;16.90;99.90;;;;;;7284330;19;20200;-74
2023/08/14 05:08:40;;;;;;;8.37;3.20;;;16.80;99.90;;;;;;7306383;19;20210;-75
2023/08/14 05:11:06;;;;;;;10.37;3.40;;;16.80;99.90;;;;;;7284181;19;20202;-75
2023/08/14 05:13:32;;;;;;;11.00;3.30;;;16.80;99.90;;;;;;7283279;19;20189;-75
2023/08/14 05:15:58;;;;;;;10.67;3.00;;;16.90;99.90;;;;;;7284761;19;20207;-75
2023/08/14 05:18:24;;;;;;;11.73;3.43;;;16.80;99.90;;;;;;7283563;19;20195;-75
2023/08/14 05:20:50;;;;;;;11.50;3.53;;;16.80;99.90;;;;;;7283819;19;21656;-75
2023/08/14 05:23:16;;;;;;;9.77;2.93;;;16.90;99.90;;;;;;7283876;19;20196;-75
2023/08/14 05:25:43;;;;;;;8.87;3.40;;;17.00;99.90;;;;;;7287949;19;20285;-74
2023/08/14 05:28:09;;;;;;;6.93;3.20;;;17.10;99.90;;;;;;7305462;19;20192;-75
2023/08/14 05:30:35;;;;;;;9.60;3.20;;;17.20;99.90;;;;;;7283924;19;20551;-74
2023/08/14 05:33:01;;;;;;;7.47;2.67;;;17.20;99.90;;;;;;7283977;19;20261;-75
2023/08/14 05:35:29;;;;;;;9.90;3.07;;;17.30;99.90;;;;;;7283302;19;20201;-75
2023/08/14 05:37:56;;;;;;;8.00;2.93;;;17.40;99.90;;;;;;7283635;19;20192;-75
2023/08/14 05:40:23;;;;;;;8.50;2.70;;;17.40;99.90;;;;;;7281994;19;20230;-76
2023/08/14 05:43:07;;;;;;;10.07;3.00;;;17.50;99.90;;;;;;7283466;19;20189;-75
2023/08/14 05:45:46;;;;;;;11.20;2.57;;;18.10;99.90;;;;;;7282901;19;20197;-76
2023/08/14 05:48:13;;;;;;;9.47;2.50;;;18.80;99.90;;;;;;7268726;19;20252;-75
2023/08/14 05:50:39;;;;;;;7.70;2.40;;;19.70;99.90;;;;;;7305016;19;20180;-75
2023/08/14 05:53:06;;;;;;;7.87;2.33;;;20.30;99.90;;;;;;7282036;19;20189;-74
2023/08/14 05:55:33;;;;;;;13.53;2.63;;;20.80;99.90;;;;;;7284193;19;20179;-75
2023/08/14 05:58:00;;;;;;;7.20;2.07;;;20.90;99.90;;;;;;7282264;19;20543;-75
2023/08/14 06:00:26;;;;;;;12.10;2.57;;;21.10;99.90;;;;;;7281697;19;20189;-75
2023/08/14 06:02:53;;;;;;;9.00;2.10;;;22.00;99.90;;;;;;7283317;19;20222;-76
2023/08/14 06:05:19;;;;;;;6.40;1.87;;;23.50;99.90;;;;;;7281037;19;20248;-75
2023/08/14 06:07:47;;;;;;;10.07;2.07;;;25.10;99.90;;;;;;7282092;19;20275;-75
2023/08/14 06:10:13;;;;;;;6.83;1.67;;;25.70;99.90;;;;;;7282241;19;20189;-75
2023/08/14 06:12:39;;;;;;;8.30;1.67;;;24.80;99.90;;;;;;7304151;19;20290;-75
2023/08/14 06:15:05;;;;;;;7.83;1.90;;;24.00;99.90;;;;;;7282322;19;20193;-75
2023/08/14 06:17:34;;;;;;;7.63;2.30;;;23.60;99.90;;;;;;7283012;19;20198;-75
2023/08/14 06:20:01;;;;;;;10.63;2.00;;;23.50;99.90;;;;;;7282336;19;20217;-75
2023/08/14 06:22:26;;;;;;;6.53;1.67;;;23.80;99.90;;;;;;7281725;19;20703;-74
2023/08/14 06:24:52;;;;;;;5.93;1.90;;;23.70;99.90;;;;;;7281579;19;20180;-75
2023/08/14 06:27:18;;;;;;;5.90;1.70;;;23.20;99.90;;;;;;7280190;19;20665;-75
2023/08/14 06:29:44;;;;;;;9.23;1.93;;;22.90;99.90;;;;;;7282040;19;20197;-74
2023/08/14 06:32:10;;;;;;;5.77;1.60;;;22.50;99.90;;;;;;7304004;19;20185;-75
2023/08/14 06:34:36;;;;;;;6.00;1.83;;;22.10;99.90;;;;;;7282230;19;20600;-75
2023/08/14 06:37:01;;;;;;;7.50;2.10;;;21.50;99.90;;;;;;7279851;19;20178;-75
2023/08/14 06:39:27;;;;;;;10.23;2.10;;;21.40;99.90;;;;;;7280562;19;20199;-75
2023/08/14 06:41:53;;;;;;;8.70;2.17;;;21.40;99.90;;;;;;7281092;19;20196;-75
2023/08/14 06:44:20;;;;;;;9.87;2.23;;;21.40;99.90;;;;;;7279991;19;20229;-74
2023/08/14 06:46:46;;;;;;;11.23;2.10;;;21.40;99.90;;;;;;7280542;19;20192;-75
2023/08/14 06:49:11;;;;;;;6.17;1.80;;;22.30;99.90;;;;;;7295870;19;20185;-74
2023/08/14 06:51:37;;;;;;;9.60;2.30;;;24.20;99.90;;;;;;7298009;19;20189;-75
2023/08/14 06:54:04;;;;;;;6.80;1.77;;;26.10;99.90;;;;;;7280694;19;20187;-75
2023/08/14 06:56:30;;;;;;;9.35;1.63;;;27.20;99.90;;;;;;7279279;19;20209;-75
2023/08/14 06:58:56;;;;;;;8.57;1.85;;;27.70;99.90;;;;;;7280853;19;20185;-75
2023/08/14 07:01:22;;;;;;;7.10;1.85;;;29.10;99.90;;;;;;7281317;19;20708;-75
2023/08/14 07:03:48;;;;;;;8.02;1.65;;;30.30;99.90;;;;;;7280302;19;20221;-75
2023/08/14 07:06:14;;;;;;;8.20;1.58;;;29.50;99.90;;;;;;7280682;19;20624;-75
2023/08/14 07:08:39;;;;;;;10.38;1.98;;;29.90;99.90;;;;;;7302577;19;20192;-75
2023/08/14 07:11:05;;;;;;;8.13;1.67;;;30.30;99.90;;;;;;7280783;19;20211;-75
2023/08/14 07:13:31;;;;;;;7.43;1.60;;;30.50;99.90;;;;;;7280103;19;20209;-75
2023/08/14 07:15:57;;;;;;;10.38;2.38;;;30.90;99.90;;;;;;7280797;19;20223;-75
2023/08/14 07:18:23;;;;;;;7.20;1.77;;;30.80;99.90;;;;;;7279536;19;20645;-75
2023/08/14 07:20:48;;;;;;;8.68;1.70;;;31.00;99.90;;;;;;7278884;19;20194;-75
2023/08/14 07:23:18;;;;;;;7.93;1.95;;;32.10;99.90;;;;;;7280650;19;20585;-75
2023/08/14 07:25:44;;;;;;;7.55;1.40;;;32.70;99.90;;;;;;7279529;19;20267;-75
2023/08/14 07:28:10;;;;;;;5.28;1.55;;;32.20;99.90;;;;;;7301358;19;20207;-75
2023/08/14 07:30:38;;;;;;;6.65;2.15;;;33.10;99.70;;;;;;7280218;19;20537;-75
2023/08/14 07:33:05;;;;;;;6.57;1.67;;;33.50;97.80;;;;;;7279468;19;20196;-75
2023/08/14 07:35:31;;;;;;;8.05;1.55;;;33.90;97.70;;;;;;7280580;19;21554;-75
2023/08/14 07:37:58;;;;;;;7.18;1.52;;;34.80;95.80;;;;;;7279297;19;20200;-75
2023/08/14 07:40:24;;;;;;;7.10;1.55;;;36.00;91.80;;;;;;7279611;19;20188;-75
2023/08/14 07:42:50;;;;;;;8.55;1.60;;;36.50;90.90;;;;;;7280210;19;20200;-75
2023/08/14 07:45:16;;;;;;;9.35;1.70;;;35.20;89.80;;;;;;7278826;19;20652;-75
2023/08/14 07:47:42;;;;;;;6.63;1.60;;;34.80;90.30;;;;;;7293270;19;20181;-76
2023/08/14 07:50:09;;;;;;;7.60;1.65;;;35.60;90.00;;;;;;7297311;19;20188;-75
2023/08/14 07:52:35;;;;;;;9.18;2.17;;;37.00;85.90;;;;;;7278445;19;20189;-75
2023/08/14 07:55:01;;;;;;;7.82;1.80;;;36.50;83.90;;;;;;7278143;19;20197;-75
2023/08/14 07:57:27;;;;;;;6.63;1.80;;;36.00;83.00;;;;;;7279024;19;20548;-75
2023/08/14 07:59:54;;;;;;;6.18;1.40;;;36.00;82.90;;;;;;7278932;19;20206;-75
2023/08/14 08:02:20;;;;;;;7.35;1.88;;;35.60;83.30;;;;;;7278639;19;20193;-75
2023/08/14 08:04:47;;;;;;;8.38;1.73;;;37.00;80.20;;;;;;7279616;19;20581;-75
2023/08/14 08:07:13;;;;;;;9.70;2.28;;;37.50;77.70;;;;;;7282886;19;20712;-75
2023/08/14 08:09:39;;;;;;;8.05;1.83;;;38.80;77.30;;;;;;7299086;19;20193;-75
2023/08/14 08:12:08;;;;;;;8.20;1.85;;;38.60;72.30;;;;;;7278932;19;20235;-75
2023/08/14 08:14:35;;;;;;;9.90;2.03;;;38.80;72.40;;;;;;7278638;19;20893;-75
2023/08/14 08:17:01;;;;;;;6.22;1.48;;;37.90;72.30;;;;;;7279451;19;20200;-75
2023/08/14 08:19:26;;;;;;;6.25;1.20;;;37.20;72.10;;;;;;7279661;19;20228;-74
2023/08/14 08:21:52;;;;;;;5.30;1.23;;;36.90;73.20;;;;;;7276231;19;20193;-74
2023/08/14 08:24:19;;;;;;;6.13;1.45;;;36.60;72.10;;;;;;7278686;19;20188;-74
2023/08/14 08:26:45;;;;;;;3.83;1.20;;;37.10;72.20;;;;;;7276960;19;20667;-74
2023/08/14 08:29:11;;;;;;;7.47;1.50;;;35.90;71.60;;;;;;7300582;19;20216;-74
2023/08/14 08:31:36;;;;;;;7.30;1.40;;;34.90;73.20;;;;;;7278939;19;20192;-74
2023/08/14 08:34:02;;;;;;;9.43;1.60;;;34.40;75.00;;;;;;7279094;19;20563;-74
2023/08/14 08:36:28;;;;;;;5.32;1.25;;;35.10;74.20;;;;;;7279046;19;20718;-77
2023/08/14 08:38:54;;;;;;;4.65;1.33;;;35.70;73.10;;;;;;7276625;19;20561;-74
2023/08/14 08:41:32;;;;;;;5.05;1.20;;;36.80;73.10;;;;;;7278322;19;20542;-75
2023/08/14 08:44:17;;;;;;;5.68;1.35;;;38.50;69.50;;;;;;7278607;19;20656;-75
2023/08/14 08:46:51;;;;;;;6.90;1.60;;;39.40;65.50;;;;;;7258164;19;20672;-75
2023/08/14 08:49:17;;;;;;;6.25;1.65;;;40.20;62.80;;;;;;7278020;19;20759;-76
2023/08/14 08:51:45;;;;;;;6.15;1.60;;;40.50;62.00;;;;;;7284632;19;20294;-75
2023/08/14 08:54:14;;;;;;;6.15;1.48;;;41.20;62.40;;;;;;7300376;19;20197;-75
2023/08/14 08:56:41;;;;;;;6.25;1.65;;;41.70;59.60;;;;;;7278514;19;20751;-75
2023/08/14 08:59:09;;;;;;;6.15;1.50;;;42.10;57.70;;;;;;7277058;19;20181;-75
2023/08/14 09:01:34;;;;;;;6.88;1.45;;;40.70;55.90;;;;;;7281776;19;20177;-75
2023/08/14 09:04:03;;;;;;;8.52;1.42;;;40.70;56.80;;;;;;7282270;19;20204;-75
2023/08/14 09:06:29;;;;;;;5.57;1.40;;;40.20;56.80;;;;;;7284022;19;20181;-75
2023/08/14 09:08:56;;;;;;;6.03;1.60;;;39.50;57.00;;;;;;7284736;19;20226;-75
2023/08/14 09:11:22;;;;;;;9.10;1.63;;;40.60;57.10;;;;;;7283739;19;20188;-76
2023/08/14 09:13:48;;;;;;;5.70;1.52;;;41.80;56.60;;;;;;7281656;19;20185;-75
2023/08/14 09:16:15;;;;;;;4.72;1.33;;;40.20;56.50;;;;;;7282797;19;20264;-75
2023/08/14 09:18:43;;;;;;;8.13;1.85;;;40.90;56.10;;;;;;7305345;19;20206;-75
2023/08/14 09:21:09;;;;;;;5.78;1.42;;;40.70;55.50;;;;;;7284300;19;20189;-75
2023/08/14 09:23:37;;;;;;;8.00;1.70;;;39.60;55.90;;;;;;7283619;19;20203;-75
2023/08/14 09:26:03;;;;;;;7.30;1.85;;;38.60;56.90;;;;;;7284545;19;20182;-76
2023/08/14 09:28:30;;;;;;;7.00;1.60;;;38.10;57.20;;;;;;7282003;19;20213;-75
2023/08/14 09:31:10;;;;;;;6.80;1.50;;;36.60;58.10;;;;;;7283730;19;20181;-76
2023/08/14 09:33:44;;;;;;;6.97;1.60;;;36.60;60.10;;;;;;7284610;19;20271;-76
2023/08/14 09:36:11;;;;;;;5.95;1.63;;;38.50;58.10;;;;;;7283974;19;20188;-75
2023/08/14 09:38:37;;;;;;;5.45;1.60;;;39.60;57.20;;;;;;7282311;19;20185;-76
2023/08/14 09:41:04;;;;;;;7.32;1.77;;;38.30;57.30;;;;;;7282618;19;20190;-75
2023/08/14 09:43:31;;;;;;;7.18;1.70;;;37.10;58.60;;;;;;7283330;19;20200;-75
2023/08/14 09:45:58;;;;;;;6.82;1.70;;;36.80;59.20;;;;;;7283137;19;20200;-75
2023/08/14 09:48:42;;;;;;;6.72;1.55;;;35.80;59.80;;;;;;7282645;19;20667;-75
2023/08/14 09:51:12;;;;;;;8.32;1.85;;;37.30;59.70;;;;;;7284801;19;20192;-76
2023/08/14 09:53:48;;;;;;;8.80;1.90;;;37.40;58.80;;;;;;7283313;19;20189;-76
2023/08/14 09:56:14;;;;;;;8.07;1.80;;;38.30;59.20;;;;;;7261368;19;20196;-75
2023/08/14 09:58:43;;;;;;;7.45;1.58;;;38.50;57.50;;;;;;7304073;19;20195;-76
2023/08/14 10:01:12;;;;;;;9.25;1.75;;;37.80;57.80;;;;;;7282633;19;20644;-75
2023/08/14 10:03:41;;;;;;;7.60;1.70;;;36.50;58.30;;;;;;7283397;19;20199;-75
2023/08/14 10:06:08;;;;;;;8.38;1.70;;;35.40;59.70;;;;;;7283472;19;20216;-75
2023/08/14 10:08:35;;;;;;;8.82;2.05;;;37.20;60.90;;;;;;7283104;19;20193;-76
2023/08/14 10:11:04;;;;;;;7.75;1.70;;;36.70;58.40;;;;;;7283392;19;20281;-75
2023/08/14 10:13:35;;;;;;;6.13;1.73;;;37.40;58.20;;;;;;7281339;19;20216;-76
2023/08/14 10:16:08;;;;;;;6.65;1.58;;;38.30;57.90;;;;;;7282685;19;20197;-75
2023/08/14 10:18:38;;;;;;;6.45;1.67;;;38.40;57.60;;;;;;7281425;19;20193;-75
2023/08/14 10:21:09;;;;;;;7.95;1.60;;;39.80;59.10;;;;;;7282523;19;20257;-75
2023/08/14 10:23:37;;;;;;;7.20;1.67;;;41.00;55.20;;;;;;7283285;19;20611;-76
2023/08/14 10:26:05;;;;;;;7.47;2.05;;;42.00;54.60;;;;;;7282449;19;20190;-75
2023/08/14 10:28:32;;;;;;;6.20;1.63;;;42.10;54.10;;;;;;7280581;19;20672;-75
2023/08/14 10:31:02;;;;;;;6.40;1.40;;;41.80;53.50;;;;;;7282844;19;20189;-75
2023/08/14 10:33:28;;;;;;;6.55;1.55;;;41.40;54.40;;;;;;7280872;19;20192;-75
2023/08/14 10:35:57;;;;;;;7.28;1.55;;;42.00;53.90;;;;;;7281522;19;20208;-75
2023/08/14 10:38:42;;;;;;;5.57;1.52;;;41.80;53.10;;;;;;7281215;19;20242;-75
2023/08/14 10:41:09;;;;;;;7.75;1.60;;;41.10;53.80;;;;;;7280780;19;20276;-75
2023/08/14 10:43:36;;;;;;;6.30;1.60;;;41.10;52.30;;;;;;7281916;19;20755;-76
2023/08/14 10:46:08;;;;;;;6.65;1.88;;;40.40;52.70;;;;;;7281586;19;21984;-75
2023/08/14 10:48:37;;;;;;;7.60;1.73;;;41.10;55.10;;;;;;7281077;19;20189;-76
2023/08/14 10:51:06;;;;;;;7.78;1.88;;;42.10;53.30;;;;;;7281005;19;20178;-75
2023/08/14 10:53:32;;;;;;;8.27;1.77;;;41.00;52.70;;;;;;7281314;19;22142;-75
2023/08/14 10:55:58;;;;;;;6.20;1.70;;;40.30;53.60;;;;;;7281421;19;20212;-75
2023/08/14 10:58:35;;;;;;;8.75;1.52;;;38.90;54.80;;;;;;7280300;19;20181;-75
2023/08/14 11:01:03;;;;;;;7.05;1.80;;;40.00;54.30;;;;;;7281324;19;20631;-76
2023/08/14 11:03:32;;;;;;;7.10;1.73;;;41.20;55.00;;;;;;7282110;19;20199;-76
2023/08/14 11:05:58;;;;;;;9.20;1.80;;;41.70;53.50;;;;;;7280383;19;20191;-75
2023/08/14 11:08:30;;;;;;;6.32;1.60;;;41.90;54.40;;;;;;7280239;19;20198;-75
2023/08/14 11:10:58;;;;;;;7.70;1.90;;;42.50;54.40;;;;;;7279201;19;20284;-75
2023/08/14 11:13:28;;;;;;;5.85;1.58;;;42.40;53.00;;;;;;7279662;19;21051;-75
2023/08/14 11:15:54;;;;;;;7.45;1.80;;;41.80;51.20;;;;;;7281099;19;20189;-75
2023/08/14 11:18:20;;;;;;;8.35;1.88;;;41.10;52.50;;;;;;7280106;19;20407;-75
2023/08/14 11:20:46;;;;;;;8.02;2.03;;;41.70;52.60;;;;;;7280340;19;20229;-76
2023/08/14 11:23:11;;;;;;;9.82;2.25;;;41.70;52.10;;;;;;7300718;19;20183;-75
2023/08/14 11:25:38;;;;;;;7.03;1.88;;;40.00;53.00;;;;;;7281485;19;20541;-75
2023/08/14 11:28:04;;;;;;;6.45;1.88;;;40.40;54.30;;;;;;7280314;19;20266;-75
2023/08/14 11:30:34;;;;;;;8.63;2.03;;;40.40;52.90;;;;;;7279768;19;20201;-75
2023/08/14 11:33:06;;;;;;;8.77;2.00;;;40.30;54.00;;;;;;7280956;19;20200;-75
2023/08/14 11:35:32;;;;;;;7.80;1.85;;;40.20;53.50;;;;;;7280700;19;20300;-75
2023/08/14 11:37:58;;;;;;;8.70;1.90;;;38.60;54.30;;;;;;7280136;19;20205;-75
2023/08/14 11:40:24;;;;;;;7.22;1.80;;;38.60;56.20;;;;;;7279608;19;20320;-75
2023/08/14 11:42:51;;;;;;;8.25;1.63;;;39.40;56.70;;;;;;7278405;19;20195;-74
2023/08/14 11:45:17;;;;;;;8.90;2.00;;;40.30;56.60;;;;;;7279539;19;20204;-75
2023/08/14 11:47:47;;;;;;;5.82;1.70;;;40.50;53.70;;;;;;7293141;19;20216;-74
2023/08/14 11:50:14;;;;;;;9.52;1.80;;;40.70;54.00;;;;;;7292324;19;20200;-74
2023/08/14 11:52:42;;;;;;;10.18;1.67;;;40.90;54.10;;;;;;7301579;19;20189;-75
2023/08/14 11:55:08;;;;;;;6.40;1.73;;;40.50;52.90;;;;;;7280183;19;20703;-75
2023/08/14 11:57:34;;;;;;;6.35;1.70;;;40.50;54.40;;;;;;7278132;19;20577;-75
2023/08/14 12:00:01;;;;;;;8.85;1.67;;;40.90;53.70;;;;;;7279251;19;20192;-74
2023/08/14 12:02:28;;;;;;;8.80;2.22;;;40.70;52.30;;;;;;7279660;19;20555;-74
2023/08/14 12:05:01;;;;;;;11.77;2.20;;;40.20;53.50;;;;;;7279034;19;20203;-75
2023/08/14 12:07:27;;;;;;;8.73;1.98;;;40.20;55.50;;;;;;7277813;19;20640;-75
2023/08/14 12:09:54;;;;;;;8.13;1.80;;;40.50;54.80;;;;;;7278687;19;20193;-75
2023/08/14 12:12:20;;;;;;;6.82;1.77;;;40.50;53.40;;;;;;7278103;19;20176;-75
2023/08/14 12:14:48;;;;;;;8.18;1.90;;;40.00;54.10;;;;;;7278365;19;20211;-75
2023/08/14 12:17:15;;;;;;;6.85;1.83;;;39.80;54.00;;;;;;7284129;19;20224;-75
2023/08/14 12:19:42;;;;;;;7.97;1.90;;;39.10;53.50;;;;;;7299422;19;20193;-74
2023/08/14 12:22:08;;;;;;;8.85;1.77;;;38.30;55.00;;;;;;7277721;19;20192;-75
2023/08/14 12:24:39;;;;;;;6.65;1.90;;;37.60;55.60;;;;;;7277922;19;20682;-75
2023/08/14 12:27:25;;;;;;;10.40;2.80;;;37.10;56.80;;;;;;7277823;19;20200;-75
2023/08/14 12:29:52;;;;;;;6.88;2.03;;;36.90;57.00;;;;;;7176018;19;2005214;-75
2023/08/14 12:32:18;;;;;;;8.13;1.98;;;36.00;58.50;;;;;;7277477;19;20256;-76
2023/08/14 12:34:44;;;;;;;8.75;1.90;;;35.50;58.90;;;;;;7278294;19;20204;-74
2023/08/14 12:37:16;;;;;;;11.77;4.13;;;35.30;61.20;;;;;;7305341;19;20200;-74
2023/08/14 12:39:52;;;;;;;12.80;4.38;;;34.40;58.50;;;;;;7285317;19;20321;-74
2023/08/14 12:42:18;;;;;;;10.35;2.10;;;33.80;60.00;;;;;;7182632;19;2004946;-74
2023/08/14 12:44:44;;;;;;;6.70;1.88;;;33.40;59.90;;;;;;7283722;19;20197;-74
2023/08/14 12:47:10;;;;;;;8.88;2.17;;;32.70;61.10;;;;;;7306743;19;20193;-75